createdAt,value
2022-12-17T00:08:02.207Z,97.4
2022-12-17T00:20:02.115Z,96.3
2022-12-17T00:32:02.205Z,96.8
2022-12-17T00:44:02.191Z,96.3
2022-12-17T00:56:02.097Z,96.3
2022-12-17T01:08:02.108Z,96.6
2022-12-17T01:20:02.201Z,96.2
2022-12-17T01:32:02.142Z,96.1
2022-12-17T01:44:02.196Z,97.1
2022-12-17T01:56:02.188Z,96.1
2022-12-17T02:08:02.099Z,97.0
2022-12-17T02:20:02.096Z,96.7
2022-12-17T02:32:02.135Z,96.0
2022-12-17T02:44:02.202Z,97.3
2022-12-17T02:56:02.207Z,96.5
2022-12-17T03:08:02.224Z,97.1
2022-12-17T03:20:02.227Z,96.4
2022-12-17T03:32:02.195Z,96.1
2022-12-17T03:44:02.212Z,96.2
2022-12-17T03:56:02.197Z,96.6
2022-12-17T04:08:02.199Z,97.5
2022-12-17T04:20:02.214Z,97.2
2022-12-17T04:32:02.104Z,96.9
2022-12-17T04:44:03.397Z,96.4
2022-12-17T04:56:02.137Z,96.3
2022-12-17T05:08:02.112Z,96.4
2022-12-17T05:20:02.216Z,96.6
2022-12-17T05:32:02.099Z,96.8
2022-12-17T05:44:02.206Z,96.8
2022-12-17T05:56:02.218Z,97.0
2022-12-17T06:08:02.518Z,97.3
2022-12-17T06:20:02.139Z,97.2
2022-12-17T06:32:02.186Z,97.5
2022-12-17T06:44:02.199Z,97.3
2022-12-17T06:56:02.167Z,97.4
2022-12-17T07:08:02.103Z,97.3
2022-12-17T07:20:02.101Z,97.4
2022-12-17T07:32:02.202Z,96.9
2022-12-17T07:44:02.192Z,97.2
2022-12-17T07:56:02.269Z,97.2
2022-12-17T08:08:02.153Z,96.9
2022-12-17T08:20:02.114Z,96.9
2022-12-17T08:32:02.095Z,96.8
2022-12-17T08:44:02.094Z,97.1
2022-12-17T08:56:02.097Z,97.1
2022-12-17T09:08:02.131Z,96.6
2022-12-17T09:20:02.090Z,96.5
2022-12-17T09:32:02.097Z,97.0
2022-12-17T09:44:02.110Z,96.6
2022-12-17T09:56:02.176Z,97.1
2022-12-17T10:08:02.113Z,96.2
2022-12-17T10:20:02.100Z,96.6
2022-12-17T10:32:02.099Z,96.7
2022-12-17T10:44:02.145Z,96.8
2022-12-17T10:56:02.093Z,97.2
2022-12-17T11:08:02.108Z,96.5
2022-12-17T11:20:02.189Z,96.0
2022-12-17T11:32:02.206Z,96.9
2022-12-17T11:44:02.102Z,96.8
2022-12-17T11:56:02.104Z,96.9
2022-12-17T12:08:02.176Z,96.9
2022-12-17T12:20:02.211Z,97.4
2022-12-17T12:32:02.150Z,97.3
2022-12-17T12:44:02.214Z,97.3
2022-12-17T12:56:02.097Z,97.8
2022-12-17T13:08:02.223Z,97.9
2022-12-17T13:20:02.228Z,97.5
2022-12-17T13:32:02.135Z,97.7
2022-12-17T13:44:02.216Z,97.8
2022-12-17T13:56:02.107Z,97.9
2022-12-17T14:08:02.101Z,97.9
2022-12-17T14:20:02.103Z,96.9
2022-12-17T14:32:02.711Z,96.6
2022-12-17T14:44:02.098Z,96.8
2022-12-17T14:56:02.097Z,96.9
2022-12-17T15:08:02.107Z,96.8
2022-12-17T15:20:02.214Z,96.8
2022-12-17T15:32:02.099Z,96.7
2022-12-17T15:44:02.097Z,96.2
2022-12-17T15:56:02.099Z,96.0
2022-12-17T16:08:02.145Z,96.0
2022-12-17T16:20:02.094Z,96.2
2022-12-17T16:32:02.093Z,95.7
2022-12-17T16:44:02.106Z,96.0
2022-12-17T16:56:02.099Z,95.6
2022-12-17T17:08:02.097Z,95.0
2022-12-17T17:20:02.098Z,95.1
2022-12-17T17:32:10.898Z,95.0
2022-12-17T17:44:02.170Z,95.1
2022-12-17T17:56:02.093Z,94.9
2022-12-17T18:08:02.214Z,94.6
2022-12-17T18:20:02.099Z,94.7
2022-12-17T18:32:02.156Z,94.6
2022-12-17T18:44:02.101Z,95.4
2022-12-17T18:56:02.095Z,94.8
2022-12-17T19:08:02.094Z,94.6
2022-12-17T19:20:02.514Z,94.4
2022-12-17T19:32:02.177Z,93.9
2022-12-17T19:44:02.149Z,94.5
2022-12-17T19:56:02.093Z,94.5
2022-12-17T20:08:02.095Z,94.3
2022-12-17T20:20:02.095Z,94.4
2022-12-17T20:32:02.179Z,94.2
2022-12-17T20:44:02.099Z,94.1
2022-12-17T20:56:02.165Z,94.1
2022-12-17T21:08:02.107Z,94.4
2022-12-17T21:20:06.659Z,93.8
2022-12-17T21:32:02.101Z,94.3
2022-12-17T21:44:02.168Z,94.1
2022-12-17T21:56:02.102Z,94.2
2022-12-17T22:08:02.105Z,94.2
2022-12-17T22:20:02.101Z,94.5
2022-12-17T22:32:02.100Z,95.0
2022-12-17T22:44:46.298Z,94.7
2022-12-17T22:56:07.971Z,94.5
2022-12-17T23:08:02.102Z,94.5
2022-12-17T23:20:02.143Z,94.4
2022-12-17T23:32:02.100Z,94.4
2022-12-17T23:44:02.148Z,95.0
2022-12-17T23:56:02.142Z,95.0
